createdAt,value
2023-05-21T00:00:00.499Z,12.08
2023-05-21T00:01:00.492Z,12.06
2023-05-21T00:02:00.453Z,12.08
2023-05-21T00:03:00.530Z,12.11
2023-05-21T00:04:00.571Z,12.12
2023-05-21T00:05:00.473Z,12.13
2023-05-21T00:06:00.565Z,12.19
2023-05-21T00:07:00.453Z,12.23
2023-05-21T00:08:00.383Z,12.23
2023-05-21T00:09:00.400Z,12.23
2023-05-21T00:10:00.391Z,12.21
2023-05-21T00:11:00.378Z,12.24
2023-05-21T00:12:00.351Z,12.27
2023-05-21T00:13:00.346Z,12.26
2023-05-21T00:14:00.345Z,12.27
2023-05-21T00:15:00.363Z,12.26
2023-05-21T00:16:00.324Z,12.24
2023-05-21T00:17:00.316Z,12.23
2023-05-21T00:18:00.314Z,12.21
2023-05-21T00:19:00.422Z,12.21
2023-05-21T00:20:00.397Z,12.21
2023-05-21T00:21:00.264Z,12.21
2023-05-21T00:22:00.241Z,12.21
2023-05-21T00:23:00.235Z,12.16
2023-05-21T00:24:00.284Z,12.20
2023-05-21T00:25:00.221Z,12.15
2023-05-21T00:26:00.209Z,12.19
2023-05-21T00:27:00.208Z,12.16
2023-05-21T00:28:00.200Z,12.16
2023-05-21T00:29:00.202Z,12.15
2023-05-21T00:30:00.211Z,12.15
2023-05-21T00:31:00.154Z,12.12
2023-05-21T00:32:00.263Z,12.13
2023-05-21T00:33:00.233Z,12.15
2023-05-21T00:34:00.149Z,12.19
2023-05-21T00:35:00.169Z,12.19
2023-05-21T00:36:00.111Z,12.16
2023-05-21T00:37:00.118Z,12.19
2023-05-21T00:38:00.137Z,12.15
2023-05-21T00:39:00.130Z,12.15
2023-05-21T00:40:00.068Z,12.12
2023-05-21T00:41:00.063Z,12.09
2023-05-21T00:42:00.029Z,12.11
2023-05-21T00:43:00.151Z,12.09
2023-05-21T00:44:00.059Z,12.08
2023-05-21T00:45:00.027Z,12.12
2023-05-21T00:46:00.006Z,12.12
2023-05-21T00:47:00.004Z,12.12
2023-05-21T00:48:00.034Z,12.12
2023-05-21T00:48:59.967Z,12.12
2023-05-21T00:49:59.945Z,12.11
2023-05-21T00:50:59.983Z,12.09
2023-05-21T00:51:59.931Z,12.06
2023-05-21T00:52:59.976Z,12.05
2023-05-21T00:53:59.922Z,12.02
2023-05-21T00:54:59.915Z,12.02
2023-05-21T00:55:59.881Z,11.97
2023-05-21T00:56:59.910Z,11.97
2023-05-21T00:57:59.867Z,11.97
2023-05-21T00:58:59.930Z,11.94
2023-05-21T00:59:59.894Z,11.90
2023-05-21T01:00:59.878Z,11.90
2023-05-21T01:01:59.937Z,11.89
2023-05-21T01:02:59.928Z,11.87
2023-05-21T01:03:59.896Z,11.86
2023-05-21T01:04:59.819Z,11.85
2023-05-21T01:05:59.862Z,11.82
2023-05-21T01:06:59.775Z,11.82
2023-05-21T01:07:59.759Z,11.77
2023-05-21T01:08:59.766Z,11.74
2023-05-21T01:09:59.730Z,11.71
2023-05-21T01:10:59.765Z,11.70
2023-05-21T01:11:59.708Z,11.70
2023-05-21T01:12:59.720Z,11.68
2023-05-21T01:13:59.708Z,11.67
2023-05-21T01:14:59.688Z,11.62
2023-05-21T01:15:59.751Z,11.62
2023-05-21T01:16:59.723Z,11.62
2023-05-21T01:17:59.696Z,11.59
2023-05-21T01:18:59.933Z,11.56
2023-05-21T01:19:59.658Z,11.56
2023-05-21T01:20:59.653Z,11.53
2023-05-21T01:21:59.613Z,11.52
2023-05-21T01:22:59.603Z,11.47
2023-05-21T01:23:59.586Z,11.44
2023-05-21T01:24:59.622Z,11.43
2023-05-21T01:25:59.558Z,11.41
2023-05-21T01:26:59.560Z,11.39
2023-05-21T01:27:59.537Z,11.38
2023-05-21T01:28:59.552Z,11.36
2023-05-21T01:29:59.566Z,11.35
2023-05-21T01:30:59.520Z,11.36
2023-05-21T01:31:59.521Z,11.36
2023-05-21T01:32:59.569Z,11.39
2023-05-21T01:33:59.584Z,11.41
2023-05-21T01:34:59.517Z,11.38
2023-05-21T01:35:59.452Z,11.38
2023-05-21T01:36:59.467Z,11.38
2023-05-21T01:37:59.446Z,11.38
2023-05-21T01:38:59.508Z,11.43
2023-05-21T01:39:59.415Z,11.43
2023-05-21T01:40:59.425Z,11.43
2023-05-21T01:41:59.401Z,11.43
2023-05-21T01:42:59.382Z,11.41
2023-05-21T01:43:59.408Z,11.39
2023-05-21T01:44:59.388Z,11.36
2023-05-21T01:45:59.370Z,11.36
2023-05-21T01:46:59.354Z,11.38
2023-05-21T01:47:59.425Z,11.38
2023-05-21T01:48:59.358Z,11.41
2023-05-21T01:49:59.327Z,11.43
2023-05-21T01:50:59.331Z,11.46
2023-05-21T01:51:59.306Z,11.47
2023-05-21T01:52:59.331Z,11.50
2023-05-21T01:53:59.289Z,11.46
2023-05-21T01:54:59.266Z,11.49
2023-05-21T01:55:59.260Z,11.47
2023-05-21T01:56:59.259Z,11.46
2023-05-21T01:58:01.234Z,11.46
2023-05-21T01:58:59.242Z,11.44
2023-05-21T01:59:59.212Z,11.41
2023-05-21T02:00:59.210Z,11.38
2023-05-21T02:01:59.251Z,11.36
2023-05-21T02:02:59.295Z,11.35
2023-05-21T02:03:59.326Z,11.34
2023-05-21T02:04:59.153Z,11.31
2023-05-21T02:05:59.211Z,11.31
2023-05-21T02:06:59.167Z,11.31
2023-05-21T02:07:59.120Z,11.29
2023-05-21T02:08:59.138Z,11.32
2023-05-21T02:09:59.113Z,11.31
2023-05-21T02:10:59.118Z,11.29
2023-05-21T02:11:59.117Z,11.29
2023-05-21T02:12:59.083Z,11.28
2023-05-21T02:13:59.082Z,11.31
2023-05-21T02:14:59.056Z,11.29
2023-05-21T02:15:59.085Z,11.32
2023-05-21T02:16:59.068Z,11.29
2023-05-21T02:17:59.029Z,11.29
2023-05-21T02:18:59.054Z,11.32
2023-05-21T02:19:59.036Z,11.29
2023-05-21T02:20:59.088Z,11.31
2023-05-21T02:21:59.025Z,11.29
2023-05-21T02:22:59.006Z,11.29
2023-05-21T02:23:58.998Z,11.28
2023-05-21T02:24:58.996Z,11.28
2023-05-21T02:25:58.984Z,11.27
2023-05-21T02:26:58.968Z,11.25
2023-05-21T02:27:58.971Z,11.28
2023-05-21T02:28:58.934Z,11.25
2023-05-21T02:29:58.951Z,11.25
2023-05-21T02:30:58.904Z,11.21
2023-05-21T02:31:58.917Z,11.21
2023-05-21T02:32:59.045Z,11.21
2023-05-21T02:33:58.924Z,11.17
2023-05-21T02:34:58.892Z,11.16
2023-05-21T02:35:58.846Z,11.17
2023-05-21T02:36:58.842Z,11.17
2023-05-21T02:37:58.814Z,11.19
2023-05-21T02:38:58.830Z,11.16
2023-05-21T02:39:58.826Z,11.16
2023-05-21T02:40:58.790Z,11.16
2023-05-21T02:41:58.740Z,11.14
2023-05-21T02:42:58.729Z,11.11
2023-05-21T02:43:58.730Z,11.13
2023-05-21T02:44:58.727Z,11.10
2023-05-21T02:45:58.779Z,11.09
2023-05-21T02:46:58.704Z,11.03
2023-05-21T02:47:58.728Z,11.02
2023-05-21T02:48:58.681Z,11.02
2023-05-21T02:49:58.647Z,11.01
2023-05-21T02:50:58.636Z,11.03
2023-05-21T02:51:58.632Z,11.02
2023-05-21T02:52:58.637Z,11.06
2023-05-21T02:53:58.639Z,11.03
2023-05-21T02:54:58.631Z,10.99
2023-05-21T02:55:58.575Z,10.98
2023-05-21T02:56:58.574Z,10.98
2023-05-21T02:57:58.583Z,10.98
2023-05-21T02:58:58.593Z,10.92
2023-05-21T02:59:58.540Z,10.91
2023-05-21T03:00:58.624Z,10.86
2023-05-21T03:01:58.510Z,10.83
2023-05-21T03:02:58.569Z,10.81
2023-05-21T03:03:58.522Z,10.78
2023-05-21T03:04:58.533Z,10.77
2023-05-21T03:05:58.489Z,10.77
2023-05-21T03:06:58.467Z,10.76
2023-05-21T03:07:58.487Z,10.76
2023-05-21T03:08:58.487Z,10.74
2023-05-21T03:09:58.431Z,10.73
2023-05-21T03:10:58.423Z,10.68
2023-05-21T03:11:58.453Z,10.70
2023-05-21T03:12:58.454Z,10.65
2023-05-21T03:13:58.392Z,10.62
2023-05-21T03:14:58.409Z,10.58
2023-05-21T03:15:58.358Z,10.53
2023-05-21T03:16:58.460Z,10.53
2023-05-21T03:17:58.419Z,10.52
2023-05-21T03:18:58.380Z,10.46
2023-05-21T03:19:58.359Z,10.47
2023-05-21T03:20:58.355Z,10.47
2023-05-21T03:21:58.304Z,10.44
2023-05-21T03:22:58.297Z,10.46
2023-05-21T03:23:58.294Z,10.46
2023-05-21T03:24:58.339Z,10.44
2023-05-21T03:25:58.257Z,10.44
2023-05-21T03:26:58.279Z,10.46
2023-05-21T03:27:58.274Z,10.51
2023-05-21T03:28:58.249Z,10.55
2023-05-21T03:29:58.266Z,10.53
2023-05-21T03:30:58.250Z,10.53
2023-05-21T03:31:58.338Z,10.55
2023-05-21T03:32:58.246Z,10.55
2023-05-21T03:33:58.311Z,10.58
2023-05-21T03:34:58.173Z,10.58
2023-05-21T03:35:58.193Z,10.60
2023-05-21T03:36:58.163Z,10.62
2023-05-21T03:37:58.156Z,10.59
2023-05-21T03:38:58.144Z,10.60
2023-05-21T03:39:58.147Z,10.60
2023-05-21T03:40:58.159Z,10.62
2023-05-21T03:41:58.118Z,10.62
2023-05-21T03:42:58.088Z,10.66
2023-05-21T03:43:58.091Z,10.68
2023-05-21T03:44:58.126Z,10.68
2023-05-21T03:45:58.097Z,10.68
2023-05-21T03:46:58.049Z,10.66
2023-05-21T03:47:58.080Z,10.66
2023-05-21T03:48:58.118Z,10.66
2023-05-21T03:49:58.061Z,10.70
2023-05-21T03:50:58.012Z,10.66
2023-05-21T03:51:58.043Z,10.70
2023-05-21T03:52:58.027Z,10.73
2023-05-21T03:53:58.009Z,10.74
2023-05-21T03:54:57.993Z,10.77
2023-05-21T03:55:57.960Z,10.78
2023-05-21T03:56:57.944Z,10.80
2023-05-21T03:57:57.940Z,10.80
2023-05-21T03:58:57.945Z,10.81
2023-05-21T03:59:57.929Z,10.84
2023-05-21T04:00:57.913Z,10.84
2023-05-21T04:01:57.929Z,10.86
2023-05-21T04:02:57.998Z,10.89
2023-05-21T04:03:58.101Z,10.94
2023-05-21T04:04:57.911Z,10.95
2023-05-21T04:05:57.890Z,10.98
2023-05-21T04:06:57.861Z,11.01
2023-05-21T04:07:57.894Z,11.03
2023-05-21T04:08:57.825Z,11.06
2023-05-21T04:09:57.834Z,11.09
2023-05-21T04:10:57.807Z,11.13
2023-05-21T04:11:57.818Z,11.16
2023-05-21T04:12:57.827Z,11.16
2023-05-21T04:13:57.797Z,11.21
2023-05-21T04:14:57.764Z,11.25
2023-05-21T04:15:57.809Z,11.28
2023-05-21T04:16:57.842Z,11.32
2023-05-21T04:17:57.818Z,11.32
2023-05-21T04:18:57.765Z,11.36
2023-05-21T04:19:57.702Z,11.39
2023-05-21T04:20:57.738Z,11.39
2023-05-21T04:21:57.708Z,11.44
2023-05-21T04:22:57.704Z,11.47
2023-05-21T04:23:57.702Z,11.50
2023-05-21T04:24:57.650Z,11.52
2023-05-21T04:25:57.662Z,11.53
2023-05-21T04:26:57.680Z,11.52
2023-05-21T04:27:57.635Z,11.54
2023-05-21T04:28:57.627Z,11.59
2023-05-21T04:29:57.639Z,11.65
2023-05-21T04:30:57.745Z,11.67
2023-05-21T04:31:57.583Z,11.71
2023-05-21T04:32:57.647Z,11.74
2023-05-21T04:33:57.599Z,11.77
2023-05-21T04:34:57.551Z,11.80
2023-05-21T04:35:57.591Z,11.85
2023-05-21T04:36:57.543Z,11.86
2023-05-21T04:37:57.585Z,11.87
2023-05-21T04:38:57.516Z,11.90
2023-05-21T04:39:57.504Z,11.94
2023-05-21T04:40:57.521Z,11.96
2023-05-21T04:41:57.491Z,12.02
2023-05-21T04:42:57.461Z,12.05
2023-05-21T04:43:57.480Z,12.06
2023-05-21T04:44:57.492Z,12.08
2023-05-21T04:45:57.539Z,12.11
2023-05-21T04:46:57.516Z,12.13
2023-05-21T04:47:57.491Z,12.16
2023-05-21T04:48:57.405Z,12.19
2023-05-21T04:49:57.462Z,12.21
2023-05-21T04:50:57.411Z,12.24
2023-05-21T04:51:57.378Z,12.26
2023-05-21T04:52:57.370Z,12.26
2023-05-21T04:53:57.434Z,12.30
2023-05-21T04:54:57.417Z,12.33
2023-05-21T04:55:57.336Z,12.38
2023-05-21T04:56:57.310Z,12.39
2023-05-21T04:57:57.313Z,12.44
2023-05-21T04:58:57.326Z,12.46
2023-05-21T04:59:57.318Z,12.51
2023-05-21T05:00:57.278Z,12.52
2023-05-21T05:01:57.311Z,12.59
2023-05-21T05:02:57.338Z,12.60
2023-05-21T05:03:57.408Z,12.64
2023-05-21T05:04:57.246Z,12.67
2023-05-21T05:05:57.238Z,12.69
2023-05-21T05:06:57.250Z,12.71
2023-05-21T05:07:57.222Z,12.74
2023-05-21T05:08:57.256Z,12.77
2023-05-21T05:09:57.185Z,12.78
2023-05-21T05:10:57.193Z,12.79
2023-05-21T05:11:57.175Z,12.85
2023-05-21T05:12:57.201Z,12.87
2023-05-21T05:13:57.191Z,12.89
2023-05-21T05:14:57.150Z,12.95
2023-05-21T05:15:57.131Z,12.96
2023-05-21T05:16:57.127Z,12.99
2023-05-21T05:17:57.182Z,13.00
2023-05-21T05:18:57.231Z,13.03
2023-05-21T05:19:57.081Z,13.09
2023-05-21T05:20:57.072Z,13.15
2023-05-21T05:21:57.085Z,13.20
2023-05-21T05:22:57.137Z,13.24
2023-05-21T05:23:57.064Z,13.25
2023-05-21T05:24:57.167Z,13.32
2023-05-21T05:25:57.022Z,13.38
2023-05-21T05:26:57.065Z,13.44
2023-05-21T05:27:57.038Z,13.51
2023-05-21T05:28:57.020Z,13.54
2023-05-21T05:29:57.003Z,13.58
2023-05-21T05:30:57.005Z,13.62
2023-05-21T05:31:56.979Z,13.61
2023-05-21T05:32:56.977Z,13.63
2023-05-21T05:33:56.945Z,13.67
2023-05-21T05:34:56.935Z,13.69
2023-05-21T05:35:56.915Z,13.71
2023-05-21T05:36:56.930Z,13.74
2023-05-21T05:37:56.895Z,13.76
2023-05-21T05:38:56.899Z,13.74
2023-05-21T05:39:56.878Z,13.79
2023-05-21T05:40:56.885Z,13.80
2023-05-21T05:41:56.920Z,13.83
2023-05-21T05:42:56.831Z,13.88
2023-05-21T05:43:56.844Z,13.92
2023-05-21T05:44:56.846Z,14.01
2023-05-21T05:45:57.056Z,14.04
2023-05-21T05:46:56.804Z,14.04
2023-05-21T05:47:56.869Z,14.10
2023-05-21T05:48:56.799Z,14.10
2023-05-21T05:49:56.816Z,14.14
2023-05-21T05:50:56.782Z,14.20
2023-05-21T05:51:56.761Z,14.25
2023-05-21T05:52:56.733Z,14.29
2023-05-21T05:53:56.774Z,14.32
2023-05-21T05:54:56.756Z,14.31
2023-05-21T05:55:56.723Z,14.31
2023-05-21T05:56:56.718Z,14.34
2023-05-21T05:57:56.686Z,14.29
2023-05-21T05:58:56.705Z,14.27
2023-05-21T05:59:56.712Z,14.27
2023-05-21T06:00:56.747Z,14.32
2023-05-21T06:01:56.648Z,14.31
2023-05-21T06:02:56.772Z,14.34
2023-05-21T06:03:56.715Z,14.34
2023-05-21T06:04:56.634Z,14.35
2023-05-21T06:05:56.675Z,14.38
2023-05-21T06:06:56.650Z,14.46
2023-05-21T06:07:56.604Z,14.49
2023-05-21T06:08:56.581Z,14.46
2023-05-21T06:09:56.574Z,14.46
2023-05-21T06:10:56.588Z,14.46
2023-05-21T06:11:56.544Z,14.43
2023-05-21T06:12:56.549Z,14.42
2023-05-21T06:13:56.601Z,14.42
2023-05-21T06:14:56.550Z,14.42
2023-05-21T06:15:56.526Z,14.42
2023-05-21T06:16:56.500Z,14.37
2023-05-21T06:17:56.573Z,14.32
2023-05-21T06:18:56.601Z,14.34
2023-05-21T06:19:56.455Z,14.38
2023-05-21T06:20:56.480Z,14.29
2023-05-21T06:21:56.449Z,14.21
2023-05-21T06:22:56.443Z,14.21
2023-05-21T06:23:56.570Z,14.20
2023-05-21T06:24:56.413Z,14.21
2023-05-21T06:25:56.439Z,14.24
2023-05-21T06:26:56.380Z,14.28
2023-05-21T06:27:56.409Z,14.21
2023-05-21T06:28:56.382Z,14.21
2023-05-21T06:29:56.359Z,14.27
2023-05-21T06:30:56.352Z,14.29
2023-05-21T06:31:56.350Z,14.32
2023-05-21T06:32:56.462Z,14.37
2023-05-21T06:33:56.432Z,14.37
2023-05-21T06:34:56.308Z,14.39
2023-05-21T06:35:56.315Z,14.43
2023-05-21T06:36:56.321Z,14.42
2023-05-21T06:37:56.317Z,14.47
2023-05-21T06:38:56.266Z,14.49
2023-05-21T06:39:56.267Z,14.56
2023-05-21T06:40:56.240Z,14.53
2023-05-21T06:41:56.254Z,14.56
2023-05-21T06:42:56.220Z,14.64
2023-05-21T06:43:56.224Z,14.65
2023-05-21T06:44:56.189Z,14.56
2023-05-21T06:45:56.220Z,14.60
2023-05-21T06:46:56.220Z,14.62
2023-05-21T06:47:56.229Z,14.71
2023-05-21T06:48:56.183Z,14.81
2023-05-21T06:49:56.146Z,14.72
2023-05-21T06:50:56.164Z,14.69
2023-05-21T06:51:56.161Z,14.56
2023-05-21T06:52:56.109Z,14.62
2023-05-21T06:53:56.115Z,14.61
2023-05-21T06:54:56.092Z,14.64
2023-05-21T06:55:56.154Z,14.72
2023-05-21T06:56:56.077Z,14.71
2023-05-21T06:57:56.072Z,14.71
2023-05-21T06:58:56.092Z,14.69
2023-05-21T06:59:56.052Z,14.71
2023-05-21T07:00:56.131Z,14.78
2023-05-21T07:01:56.064Z,14.83
2023-05-21T07:02:56.064Z,14.90
2023-05-21T07:03:56.043Z,15.02
2023-05-21T07:04:56.089Z,15.11
2023-05-21T07:05:56.004Z,15.26
2023-05-21T07:06:55.964Z,15.39
2023-05-21T07:07:55.997Z,15.51
2023-05-21T07:08:55.960Z,15.64
2023-05-21T07:09:55.957Z,15.68
2023-05-21T07:10:55.966Z,15.78
2023-05-21T07:11:55.915Z,15.86
2023-05-21T07:12:55.918Z,15.85
2023-05-21T07:13:55.903Z,15.94
2023-05-21T07:14:58.132Z,16.00
2023-05-21T07:15:55.876Z,15.94
2023-05-21T07:16:55.880Z,15.92
2023-05-21T07:17:55.926Z,15.92
2023-05-21T07:18:55.905Z,15.93
2023-05-21T07:19:55.877Z,15.94
2023-05-21T07:20:55.849Z,16.03
2023-05-21T07:21:55.842Z,16.11
2023-05-21T07:22:55.797Z,16.22
2023-05-21T07:23:55.825Z,16.22
2023-05-21T07:24:55.780Z,16.25
2023-05-21T07:25:56.810Z,16.16
2023-05-21T07:26:55.758Z,16.14
2023-05-21T07:27:55.756Z,16.25
2023-05-21T07:28:55.781Z,16.33
2023-05-21T07:29:55.733Z,16.44
2023-05-21T07:30:55.720Z,16.48
2023-05-21T07:31:55.749Z,16.55
2023-05-21T07:32:55.764Z,16.60
2023-05-21T07:33:55.710Z,16.55
2023-05-21T07:34:55.729Z,16.55
2023-05-21T07:35:55.673Z,16.60
2023-05-21T07:36:55.646Z,16.58
2023-05-21T07:37:55.681Z,16.70
2023-05-21T07:38:55.640Z,16.71
2023-05-21T07:39:55.623Z,16.73
2023-05-21T07:40:55.685Z,16.75
2023-05-21T07:41:55.608Z,16.83
2023-05-21T07:42:55.589Z,16.98
2023-05-21T07:43:55.597Z,17.08
2023-05-21T07:44:55.603Z,16.90
2023-05-21T07:45:55.602Z,17.00
2023-05-21T07:46:55.553Z,17.15
2023-05-21T07:47:55.587Z,17.26
2023-05-21T07:48:55.540Z,17.30
2023-05-21T07:49:55.522Z,17.43
2023-05-21T07:50:55.574Z,17.33
2023-05-21T07:51:55.526Z,17.41
2023-05-21T07:52:55.627Z,17.40
2023-05-21T07:53:55.597Z,17.43
2023-05-21T07:54:55.475Z,17.62
2023-05-21T07:55:55.507Z,17.81
2023-05-21T07:56:55.511Z,17.89
2023-05-21T07:57:55.435Z,18.03
2023-05-21T07:58:55.451Z,17.88
2023-05-21T07:59:55.421Z,17.91
2023-05-21T08:00:55.480Z,18.03
2023-05-21T08:01:55.433Z,18.19
2023-05-21T08:02:55.479Z,18.39
2023-05-21T08:03:55.532Z,18.77
2023-05-21T08:04:55.424Z,19.08
2023-05-21T08:05:55.370Z,19.08
2023-05-21T08:06:55.371Z,18.95
2023-05-21T08:07:55.340Z,18.82
2023-05-21T08:08:55.342Z,18.74
2023-05-21T08:09:55.317Z,18.67
2023-05-21T08:10:55.350Z,18.46
2023-05-21T08:11:55.300Z,18.40
2023-05-21T08:12:55.282Z,18.50
2023-05-21T08:13:55.332Z,18.64
2023-05-21T08:14:55.254Z,18.62
2023-05-21T08:15:55.296Z,18.74
2023-05-21T08:16:55.236Z,18.86
2023-05-21T08:17:55.271Z,19.10
2023-05-21T08:18:55.258Z,19.24
2023-05-21T08:19:55.264Z,19.38
2023-05-21T08:20:55.218Z,19.47
2023-05-21T08:21:55.190Z,19.38
2023-05-21T08:22:55.171Z,19.40
2023-05-21T08:23:55.416Z,19.21
2023-05-21T08:24:56.194Z,19.15
2023-05-21T08:25:55.153Z,19.11
2023-05-21T08:26:55.132Z,18.82
2023-05-21T08:27:55.148Z,18.98
2023-05-21T08:28:55.133Z,19.11
2023-05-21T08:29:55.117Z,19.29
2023-05-21T08:30:55.081Z,19.21
2023-05-21T08:31:55.136Z,18.84
2023-05-21T08:32:55.331Z,18.86
2023-05-21T08:33:55.083Z,19.02
2023-05-21T08:34:55.076Z,19.39
2023-05-21T08:35:55.044Z,19.43
2023-05-21T08:36:55.034Z,19.63
2023-05-21T08:37:55.027Z,20.02
2023-05-21T08:38:55.059Z,20.27
2023-05-21T08:39:55.025Z,20.20
2023-05-21T08:40:55.051Z,20.46
2023-05-21T08:41:54.996Z,20.72
2023-05-21T08:42:55.051Z,20.96
2023-05-21T08:43:55.088Z,21.21
2023-05-21T08:44:54.948Z,21.30
2023-05-21T08:45:55.006Z,21.53
2023-05-21T08:46:54.927Z,21.63
2023-05-21T08:47:54.994Z,21.78
2023-05-21T08:48:55.046Z,21.67
2023-05-21T08:49:54.879Z,21.76
2023-05-21T08:50:54.991Z,21.78
2023-05-21T08:51:54.895Z,21.90
2023-05-21T08:52:54.910Z,22.10
2023-05-21T08:53:54.867Z,22.06
2023-05-21T08:54:54.841Z,22.17
2023-05-21T08:55:54.825Z,22.28
2023-05-21T08:56:54.853Z,22.31
2023-05-21T08:57:54.842Z,22.56
2023-05-21T08:58:54.815Z,23.01
2023-05-21T08:59:54.820Z,23.09
2023-05-21T09:00:54.978Z,23.05
2023-05-21T09:01:54.948Z,23.27
2023-05-21T09:02:54.962Z,23.61
2023-05-21T09:04:01.762Z,24.07
2023-05-21T09:04:54.877Z,24.01
2023-05-21T09:05:54.781Z,24.27
2023-05-21T09:06:54.773Z,24.59
2023-05-21T09:07:54.705Z,24.83
2023-05-21T09:08:54.750Z,25.17
2023-05-21T09:09:54.695Z,25.61
2023-05-21T09:10:54.683Z,25.72
2023-05-21T09:11:54.684Z,26.06
2023-05-21T09:12:54.681Z,26.15
2023-05-21T09:13:54.655Z,25.72
2023-05-21T09:14:54.648Z,25.65
2023-05-21T09:15:54.660Z,25.17
2023-05-21T09:16:54.710Z,25.06
2023-05-21T09:17:55.057Z,24.27
2023-05-21T09:18:54.672Z,23.35
2023-05-21T09:19:54.587Z,23.24
2023-05-21T09:20:54.600Z,23.24
2023-05-21T09:21:54.605Z,23.86
2023-05-21T09:22:54.581Z,24.27
2023-05-21T09:23:54.583Z,24.47
2023-05-21T09:24:54.539Z,24.79
2023-05-21T09:25:54.557Z,24.94
2023-05-21T09:26:54.528Z,24.88
2023-05-21T09:27:54.529Z,24.67
2023-05-21T09:28:54.525Z,24.71
2023-05-21T09:29:54.516Z,24.57
2023-05-21T09:30:54.592Z,24.91
2023-05-21T09:31:54.505Z,25.28
2023-05-21T09:32:54.512Z,25.28
2023-05-21T09:33:54.459Z,25.10
2023-05-21T09:34:54.481Z,24.85
2023-05-21T09:35:54.448Z,24.88
2023-05-21T09:36:54.489Z,24.91
2023-05-21T09:37:54.509Z,24.90
2023-05-21T09:38:54.447Z,25.09
2023-05-21T09:39:54.444Z,24.77
2023-05-21T09:40:54.392Z,24.71
2023-05-21T09:41:54.459Z,24.77
2023-05-21T09:42:54.382Z,25.09
2023-05-21T09:43:54.390Z,25.50
2023-05-21T09:44:54.405Z,25.37
2023-05-21T09:45:54.392Z,25.38
2023-05-21T09:46:54.350Z,25.54
2023-05-21T09:47:54.352Z,25.72
2023-05-21T09:48:54.333Z,25.83
2023-05-21T09:49:54.351Z,26.02
2023-05-21T09:50:54.300Z,26.32
2023-05-21T09:51:54.291Z,26.77
2023-05-21T09:52:54.264Z,26.94
2023-05-21T09:53:54.312Z,26.95
2023-05-21T09:54:54.262Z,26.92
2023-05-21T09:55:54.248Z,26.64
2023-05-21T09:56:54.281Z,26.37
2023-05-21T09:57:54.264Z,26.36
2023-05-21T09:58:54.252Z,26.65
2023-05-21T09:59:54.211Z,26.84
2023-05-21T10:00:54.199Z,27.28
2023-05-21T10:01:54.223Z,27.82
2023-05-21T10:02:54.285Z,28.14
2023-05-21T10:03:54.199Z,28.19
2023-05-21T10:04:54.237Z,28.21
2023-05-21T10:05:54.145Z,28.23
2023-05-21T10:06:54.161Z,28.14
2023-05-21T10:07:54.163Z,27.70
2023-05-21T10:08:54.132Z,27.58
2023-05-21T10:09:54.186Z,27.50
2023-05-21T10:10:54.091Z,27.31
2023-05-21T10:11:54.112Z,27.46
2023-05-21T10:12:54.089Z,27.74
2023-05-21T10:13:54.081Z,28.16
2023-05-21T10:14:54.049Z,28.21
2023-05-21T10:15:54.072Z,28.65
2023-05-21T10:16:54.223Z,29.08
2023-05-21T10:17:54.199Z,29.23
2023-05-21T10:18:54.067Z,29.55
2023-05-21T10:19:54.010Z,30.02
2023-05-21T10:20:54.002Z,30.03
2023-05-21T10:21:54.010Z,30.27
2023-05-21T10:22:53.975Z,30.34
2023-05-21T10:23:53.983Z,30.59
2023-05-21T10:24:53.966Z,30.81
2023-05-21T10:25:54.105Z,30.16
2023-05-21T10:26:53.997Z,29.75
2023-05-21T10:27:53.920Z,29.40
2023-05-21T10:28:53.939Z,29.41
2023-05-21T10:29:53.919Z,29.00
2023-05-21T10:30:54.064Z,28.25
2023-05-21T10:31:53.942Z,28.82
2023-05-21T10:32:54.040Z,29.40
2023-05-21T10:33:54.735Z,29.29
2023-05-21T10:34:54.027Z,28.95
2023-05-21T10:35:53.945Z,28.95
2023-05-21T10:36:53.859Z,29.37
2023-05-21T10:37:53.841Z,29.45
2023-05-21T10:38:53.845Z,30.21
2023-05-21T10:39:53.853Z,30.52
2023-05-21T10:40:53.845Z,30.76
2023-05-21T10:41:54.425Z,30.47
2023-05-21T10:42:53.797Z,29.81
2023-05-21T10:43:53.854Z,29.81
2023-05-21T10:44:53.822Z,29.70
2023-05-21T10:45:53.810Z,29.18
2023-05-21T10:46:53.758Z,29.13
2023-05-21T10:47:54.490Z,29.11
2023-05-21T10:48:53.784Z,28.80
2023-05-21T10:49:53.775Z,28.14
2023-05-21T10:50:53.791Z,28.23
2023-05-21T10:51:53.698Z,28.23
2023-05-21T10:52:53.698Z,28.13
2023-05-21T10:53:53.772Z,28.16
2023-05-21T10:54:53.719Z,28.10
2023-05-21T10:55:53.668Z,28.23
2023-05-21T10:56:53.690Z,28.07
2023-05-21T10:57:53.674Z,28.03
2023-05-21T10:58:53.715Z,27.85
2023-05-21T10:59:53.651Z,27.57
2023-05-21T11:00:53.698Z,27.01
2023-05-21T11:01:53.617Z,26.62
2023-05-21T11:02:53.653Z,26.39
2023-05-21T11:03:53.689Z,26.28
2023-05-21T11:04:53.603Z,26.54
2023-05-21T11:05:53.642Z,27.01
2023-05-21T11:06:53.615Z,27.04
2023-05-21T11:07:53.604Z,27.05
2023-05-21T11:08:55.351Z,26.94
2023-05-21T11:09:53.544Z,26.52
2023-05-21T11:10:53.579Z,26.49
2023-05-21T11:11:53.515Z,26.61
2023-05-21T11:12:53.538Z,26.64
2023-05-21T11:13:53.546Z,26.76
2023-05-21T11:14:53.502Z,26.95
2023-05-21T11:15:53.489Z,26.77
2023-05-21T11:16:53.535Z,26.08
2023-05-21T11:17:53.544Z,25.71
2023-05-21T11:18:53.519Z,25.56
2023-05-21T11:19:53.440Z,25.32
2023-05-21T11:20:53.435Z,25.24
2023-05-21T11:21:53.459Z,25.28
2023-05-21T11:22:53.422Z,25.20
2023-05-21T11:23:53.468Z,25.47
2023-05-21T11:24:53.403Z,25.54
2023-05-21T11:25:53.393Z,25.61
2023-05-21T11:26:53.522Z,25.75
2023-05-21T11:27:53.381Z,25.67
2023-05-21T11:28:53.407Z,25.79
2023-05-21T11:29:53.387Z,25.53
2023-05-21T11:30:53.409Z,25.62
2023-05-21T11:31:53.369Z,25.32
2023-05-21T11:32:53.431Z,25.31
2023-05-21T11:33:53.308Z,25.54
2023-05-21T11:34:53.332Z,25.79
2023-05-21T11:35:53.312Z,25.64
2023-05-21T11:36:53.276Z,25.67
2023-05-21T11:37:53.268Z,25.94
2023-05-21T11:38:53.278Z,25.59
2023-05-21T11:39:53.281Z,25.46
2023-05-21T11:40:53.278Z,25.53
2023-05-21T11:41:53.245Z,25.64
2023-05-21T11:42:53.229Z,25.69
2023-05-21T11:43:53.228Z,25.83
2023-05-21T11:44:53.259Z,25.52
2023-05-21T11:45:53.389Z,24.98
2023-05-21T11:46:53.295Z,24.73
2023-05-21T11:47:53.216Z,24.82
2023-05-21T11:48:53.196Z,24.95
2023-05-21T11:49:53.205Z,24.85
2023-05-21T11:50:53.147Z,24.73
2023-05-21T11:51:53.133Z,24.47
2023-05-21T11:52:53.140Z,24.53
2023-05-21T11:53:53.119Z,24.75
2023-05-21T11:54:53.134Z,24.94
2023-05-21T11:55:53.145Z,24.98
2023-05-21T11:56:53.089Z,24.94
2023-05-21T11:57:53.094Z,24.73
2023-05-21T11:58:53.095Z,24.75
2023-05-21T11:59:53.112Z,24.79
2023-05-21T12:00:53.110Z,24.67
2023-05-21T12:01:53.020Z,24.50
2023-05-21T12:02:53.353Z,24.67
2023-05-21T12:03:53.070Z,24.83
2023-05-21T12:04:53.019Z,25.05
2023-05-21T12:05:53.082Z,25.17
2023-05-21T12:06:52.975Z,25.27
2023-05-21T12:07:52.987Z,25.28
2023-05-21T12:08:53.034Z,25.12
2023-05-21T12:09:52.988Z,24.95
2023-05-21T12:10:53.012Z,25.13
2023-05-21T12:11:52.934Z,25.07
2023-05-21T12:12:56.985Z,24.63
2023-05-21T12:13:52.998Z,24.61
2023-05-21T12:14:52.892Z,24.53
2023-05-21T12:15:52.892Z,24.45
2023-05-21T12:16:52.954Z,24.23
2023-05-21T12:17:53.327Z,24.13
2023-05-21T12:18:52.957Z,24.24
2023-05-21T12:19:52.856Z,24.31
2023-05-21T12:20:52.850Z,24.14
2023-05-21T12:21:52.841Z,24.34
2023-05-21T12:22:52.838Z,24.54
2023-05-21T12:23:52.845Z,24.52
2023-05-21T12:24:52.822Z,24.26
2023-05-21T12:25:52.836Z,24.19
2023-05-21T12:26:52.806Z,24.19
2023-05-21T12:27:52.981Z,24.32
2023-05-21T12:28:52.776Z,24.27
2023-05-21T12:29:52.756Z,24.20
2023-05-21T12:30:52.749Z,24.13
2023-05-21T12:31:52.899Z,24.22
2023-05-21T12:32:52.842Z,24.17
2023-05-21T12:33:52.742Z,24.05
2023-05-21T12:34:52.725Z,23.97
2023-05-21T12:35:52.799Z,23.94
2023-05-21T12:36:52.701Z,23.92
2023-05-21T12:37:52.802Z,24.10
2023-05-21T12:38:52.710Z,24.07
2023-05-21T12:39:52.650Z,23.95
2023-05-21T12:40:52.633Z,23.95
2023-05-21T12:41:52.629Z,24.07
2023-05-21T12:42:52.688Z,24.10
2023-05-21T12:43:52.658Z,23.98
2023-05-21T12:44:52.630Z,23.94
2023-05-21T12:45:52.685Z,24.02
2023-05-21T12:47:53.933Z,23.95
2023-05-21T12:48:54.545Z,23.80
2023-05-21T12:49:55.315Z,23.77
2023-05-21T12:50:54.537Z,23.67
2023-05-21T12:51:54.556Z,23.67
2023-05-21T12:52:54.559Z,23.71